Time;durP1;ratioP1;P1;durP2;ratioP2;P2;SDS_P1;SDS_P2;PMS_P1;PMS_P2;Temp;Humidity;BMP_temperature;BMP_pressure;BME280_temperature;BME280_humidity;BME280_pressure;Samples;Min_cycle;Max_cycle;Signal;HPM_P1;HPM_P2
2021/06/20 00:00:52;;;;;;;22.05;12.38;;;;;;;;;;5082351;28;20358;-56
2021/06/20 00:03:19;;;;;;;20.80;12.93;;;;;;;;;;5078951;28;20048;-57
2021/06/20 00:05:50;;;;;;;21.63;13.05;;;;;;;;;;5083163;28;20051;-57
2021/06/20 00:08:16;;;;;;;19.33;11.80;;;;;;;;;;5079654;28;20051;-57
2021/06/20 00:10:49;;;;;;;20.23;11.98;;;;;;;;;;5083705;28;20036;-57
2021/06/20 00:13:15;;;;;;;22.08;12.20;;;;;;;;;;5082079;28;20041;-53
2021/06/20 00:15:42;;;;;;;24.27;13.45;;;;;;;;;;5083111;28;20051;-57
2021/06/20 00:18:09;;;;;;;20.00;12.45;;;;;;;;;;5074499;28;20039;-56
2021/06/20 00:20:38;;;;;;;21.60;12.93;;;;;;;;;;5079335;28;20055;-57
2021/06/20 00:23:04;;;;;;;21.85;12.40;;;;;;;;;;5077172;28;20029;-57
2021/06/20 00:25:36;;;;;;;22.30;13.23;;;;;;;;;;5082943;28;20033;-58
2021/06/20 00:28:04;;;;;;;21.55;13.23;;;;;;;;;;5092829;28;20040;-57
2021/06/20 00:30:32;;;;;;;18.92;12.50;;;;;;;;;;5079896;28;20048;-57
2021/06/20 00:32:58;;;;;;;20.98;12.60;;;;;;;;;;5081995;28;20125;-57
2021/06/20 00:35:26;;;;;;;19.73;12.38;;;;;;;;;;5079603;28;20052;-57
2021/06/20 00:37:52;;;;;;;20.95;13.32;;;;;;;;;;5073775;28;20040;-57
2021/06/20 00:40:19;;;;;;;24.02;13.35;;;;;;;;;;5079359;28;20051;-56
2021/06/20 00:42:46;;;;;;;18.92;13.20;;;;;;;;;;5082300;28;20073;-57
2021/06/20 00:45:22;;;;;;;21.50;13.85;;;;;;;;;;5078439;28;20044;-57
2021/06/20 00:47:49;;;;;;;20.73;12.98;;;;;;;;;;5074562;28;20141;-57
2021/06/20 00:50:16;;;;;;;23.40;14.43;;;;;;;;;;5079140;28;20081;-55
2021/06/20 00:52:42;;;;;;;23.30;13.52;;;;;;;;;;5083434;28;20043;-56
2021/06/20 00:55:11;;;;;;;21.30;13.70;;;;;;;;;;5081539;28;20059;-55
2021/06/20 00:57:37;;;;;;;22.13;13.32;;;;;;;;;;5081560;28;20037;-54
2021/06/20 01:00:05;;;;;;;21.85;13.70;;;;;;;;;;5080196;28;20071;-57
2021/06/20 01:02:33;;;;;;;22.42;14.38;;;;;;;;;;5084076;28;20047;-58
2021/06/20 01:05:01;;;;;;;22.48;14.30;;;;;;;;;;5079408;28;20040;-59
2021/06/20 01:07:28;;;;;;;26.27;16.05;;;;;;;;;;5079587;28;20046;-57
2021/06/20 01:09:54;;;;;;;27.67;16.10;;;;;;;;;;5069981;28;20044;-57
2021/06/20 01:12:22;;;;;;;23.80;14.93;;;;;;;;;;5079569;28;20044;-57
2021/06/20 01:14:49;;;;;;;29.08;15.60;;;;;;;;;;5082394;28;20040;-58
2021/06/20 01:17:16;;;;;;;22.73;13.43;;;;;;;;;;5075954;28;20052;-56
2021/06/20 01:19:46;;;;;;;25.48;14.35;;;;;;;;;;5063015;28;20057;-58
2021/06/20 01:22:18;;;;;;;21.67;13.88;;;;;;;;;;5069836;28;20040;-58
2021/06/20 01:24:45;;;;;;;24.35;15.73;;;;;;;;;;5082765;28;20077;-57
2021/06/20 01:27:11;;;;;;;22.95;15.13;;;;;;;;;;5079181;28;20347;-57
2021/06/20 01:29:46;;;;;;;24.42;14.90;;;;;;;;;;5082567;28;20033;-58
2021/06/20 01:32:12;;;;;;;24.27;14.18;;;;;;;;;;5078039;28;20032;-57
2021/06/20 01:34:39;;;;;;;23.85;14.88;;;;;;;;;;5095140;28;20047;-57
2021/06/20 01:37:08;;;;;;;24.50;14.90;;;;;;;;;;5082941;28;20039;-57
2021/06/20 01:39:36;;;;;;;23.65;15.20;;;;;;;;;;5081657;28;20036;-58
2021/06/20 01:42:03;;;;;;;22.60;14.45;;;;;;;;;;5080690;28;20040;-58
2021/06/20 01:44:30;;;;;;;22.48;14.55;;;;;;;;;;5083499;28;20344;-58
2021/06/20 01:46:57;;;;;;;25.42;15.23;;;;;;;;;;5076214;28;20032;-58
2021/06/20 01:49:23;;;;;;;23.55;14.77;;;;;;;;;;5082322;28;20067;-58
2021/06/20 01:51:51;;;;;;;27.30;16.20;;;;;;;;;;5082494;28;20036;-58
2021/06/20 01:54:17;;;;;;;23.83;15.25;;;;;;;;;;5076823;28;20032;-58
2021/06/20 01:56:48;;;;;;;24.20;15.82;;;;;;;;;;5080983;28;20047;-58
2021/06/20 01:59:14;;;;;;;25.23;16.55;;;;;;;;;;5078868;28;20117;-58
2021/06/20 02:01:41;;;;;;;33.63;15.80;;;;;;;;;;5083197;28;20040;-58
2021/06/20 02:04:07;;;;;;;30.52;15.68;;;;;;;;;;5078372;28;20040;-57
2021/06/20 02:06:35;;;;;;;23.40;14.77;;;;;;;;;;5080939;28;20046;-57
2021/06/20 02:09:02;;;;;;;26.27;15.48;;;;;;;;;;5073777;28;20095;-58
2021/06/20 02:11:30;;;;;;;27.27;15.40;;;;;;;;;;5062122;28;20037;-58
2021/06/20 02:13:58;;;;;;;22.75;14.02;;;;;;;;;;5069328;28;20044;-57
2021/06/20 02:16:24;;;;;;;25.50;15.40;;;;;;;;;;5082501;28;20092;-57
2021/06/20 02:18:51;;;;;;;26.65;16.58;;;;;;;;;;5078907;28;20044;-57
2021/06/20 02:21:17;;;;;;;28.17;16.10;;;;;;;;;;5082002;28;20044;-59
2021/06/20 02:23:44;;;;;;;26.50;14.68;;;;;;;;;;5078382;28;20073;-57
2021/06/20 02:26:10;;;;;;;23.45;15.48;;;;;;;;;;5082547;28;20032;-58
2021/06/20 02:28:37;;;;;;;24.48;14.75;;;;;;;;;;5077598;28;20037;-58
2021/06/20 02:31:05;;;;;;;24.05;15.15;;;;;;;;;;5082430;28;20028;-56
2021/06/20 02:33:31;;;;;;;29.67;15.80;;;;;;;;;;5079395;28;20090;-58
2021/06/20 02:35:58;;;;;;;25.23;15.10;;;;;;;;;;5079397;28;20052;-57
2021/06/20 02:38:24;;;;;;;24.95;14.68;;;;;;;;;;5082392;28;20503;-58
2021/06/20 02:40:52;;;;;;;24.45;15.13;;;;;;;;;;5070492;28;20054;-58
2021/06/20 02:43:18;;;;;;;24.63;15.50;;;;;;;;;;5088299;28;20125;-55
2021/06/20 02:45:45;;;;;;;26.40;14.52;;;;;;;;;;5085780;28;20119;-57
2021/06/20 02:48:13;;;;;;;24.83;15.50;;;;;;;;;;5086805;28;20052;-57
2021/06/20 02:50:40;;;;;;;25.25;15.05;;;;;;;;;;5084124;28;20101;-58
2021/06/20 02:53:08;;;;;;;23.63;15.57;;;;;;;;;;5087890;28;20040;-57
2021/06/20 02:55:35;;;;;;;26.98;14.93;;;;;;;;;;5086038;27;20059;-57
2021/06/20 02:58:01;;;;;;;27.27;15.55;;;;;;;;;;5087927;28;20121;-57
2021/06/20 03:03:24;;;;;;;24.98;15.60;;;;;;;;;;5075557;22;20029;-57
2021/06/20 03:05:51;;;;;;;23.65;15.07;;;;;;;;;;5059868;28;20052;-56
2021/06/20 03:08:17;;;;;;;27.92;15.90;;;;;;;;;;5068836;28;20051;-57
2021/06/20 03:10:44;;;;;;;25.05;14.65;;;;;;;;;;5032558;28;20053;-56
2021/06/20 03:13:11;;;;;;;23.73;14.82;;;;;;;;;;5037367;28;20041;-57
2021/06/20 03:15:39;;;;;;;29.23;16.02;;;;;;;;;;5052338;28;20052;-56
2021/06/20 03:18:06;;;;;;;24.80;14.32;;;;;;;;;;5044277;28;20055;-57
2021/06/20 03:20:34;;;;;;;23.42;14.25;;;;;;;;;;5051530;28;20159;-58
2021/06/20 03:23:01;;;;;;;24.20;15.30;;;;;;;;;;5046281;28;20041;-57
2021/06/20 03:25:27;;;;;;;26.33;15.25;;;;;;;;;;5052261;28;20056;-58
2021/06/20 03:27:54;;;;;;;25.23;15.02;;;;;;;;;;5046264;28;20156;-57
2021/06/20 03:30:21;;;;;;;21.98;14.02;;;;;;;;;;5049930;28;20048;-57
2021/06/20 03:32:47;;;;;;;23.80;15.18;;;;;;;;;;5052433;28;20033;-57
2021/06/20 03:35:14;;;;;;;24.67;13.80;;;;;;;;;;5059599;28;20057;-57
2021/06/20 03:37:42;;;;;;;20.50;12.52;;;;;;;;;;5051818;28;20041;-57
2021/06/20 03:40:09;;;;;;;18.48;10.80;;;;;;;;;;5047487;28;20040;-58
2021/06/20 03:42:35;;;;;;;20.98;10.00;;;;;;;;;;5050437;28;20110;-57
2021/06/20 03:45:05;;;;;;;18.48;10.60;;;;;;;;;;5045514;28;20049;-57
2021/06/20 03:47:31;;;;;;;16.83;10.27;;;;;;;;;;5051654;28;20037;-56
2021/06/20 03:49:58;;;;;;;17.60;10.23;;;;;;;;;;5050939;28;20036;-55
2021/06/20 03:52:24;;;;;;;17.52;10.70;;;;;;;;;;5046759;28;20102;-57
2021/06/20 03:54:55;;;;;;;19.75;10.15;;;;;;;;;;5046307;28;20036;-56
2021/06/20 03:57:22;;;;;;;17.45;9.45;;;;;;;;;;5061826;28;20040;-58
2021/06/20 03:59:49;;;;;;;15.40;8.88;;;;;;;;;;5048922;28;20101;-58
2021/06/20 04:02:16;;;;;;;15.70;8.57;;;;;;;;;;5042660;28;20301;-58
2021/06/20 04:04:42;;;;;;;14.27;9.00;;;;;;;;;;5044595;28;20033;-57
2021/06/20 04:07:11;;;;;;;20.10;9.48;;;;;;;;;;5033724;28;21007;-57
2021/06/20 04:09:38;;;;;;;18.67;9.40;;;;;;;;;;5065010;28;20055;-57
2021/06/20 04:12:07;;;;;;;21.98;9.73;;;;;;;;;;5046152;28;20049;-58
2021/06/20 04:14:42;;;;;;;19.42;10.00;;;;;;;;;;5044787;28;20029;-57
2021/06/20 04:17:09;;;;;;;22.73;10.93;;;;;;;;;;5065407;28;20033;-57
2021/06/20 04:19:35;;;;;;;24.35;10.57;;;;;;;;;;5072416;28;20118;-57
2021/06/20 04:22:02;;;;;;;18.30;9.60;;;;;;;;;;5049521;28;20051;-57
2021/06/20 04:24:41;;;;;;;19.20;10.73;;;;;;;;;;5051852;28;20048;-57
2021/06/20 04:27:13;;;;;;;16.92;10.48;;;;;;;;;;5029351;28;20045;-57
2021/06/20 04:29:40;;;;;;;21.58;11.20;;;;;;;;;;5025304;28;20048;-57
2021/06/20 04:32:08;;;;;;;22.48;10.80;;;;;;;;;;5031079;28;20041;-56
2021/06/20 04:34:34;;;;;;;20.15;10.23;;;;;;;;;;5035778;28;20033;-57
2021/06/20 04:37:03;;;;;;;21.83;10.85;;;;;;;;;;5031164;28;20049;-58
2021/06/20 04:39:30;;;;;;;17.80;11.07;;;;;;;;;;5026048;28;20470;-58
2021/06/20 04:41:56;;;;;;;19.38;9.80;;;;;;;;;;5065598;28;20033;-57
2021/06/20 04:44:46;;;;;;;19.08;10.05;;;;;;;;;;5041087;28;20044;-56
2021/06/20 04:47:13;;;;;;;18.50;9.35;;;;;;;;;;5027493;28;20053;-57
2021/06/20 04:49:39;;;;;;;19.67;8.63;;;;;;;;;;5026052;28;20118;-54
2021/06/20 04:52:06;;;;;;;23.33;9.13;;;;;;;;;;5027805;28;20022;-57
2021/06/20 04:54:35;;;;;;;18.75;8.07;;;;;;;;;;5043174;28;20127;-57
2021/06/20 04:57:03;;;;;;;20.38;8.30;;;;;;;;;;5028304;28;20057;-58
2021/06/20 04:59:31;;;;;;;18.45;8.55;;;;;;;;;;5028205;28;20041;-56
2021/06/20 05:01:58;;;;;;;13.57;7.65;;;;;;;;;;5047548;28;20044;-57
2021/06/20 05:04:27;;;;;;;14.18;7.47;;;;;;;;;;5064451;28;20045;-57
2021/06/20 05:06:54;;;;;;;14.82;7.68;;;;;;;;;;5027997;28;20089;-57
2021/06/20 05:09:20;;;;;;;17.15;8.10;;;;;;;;;;5035443;28;20061;-58
2021/06/20 05:11:47;;;;;;;14.85;7.07;;;;;;;;;;5044628;28;20044;-58
2021/06/20 05:14:14;;;;;;;15.35;7.47;;;;;;;;;;5065953;28;20025;-54
2021/06/20 05:16:42;;;;;;;14.85;7.53;;;;;;;;;;5030284;28;20127;-57
2021/06/20 05:19:09;;;;;;;13.10;7.28;;;;;;;;;;5027150;28;20052;-57
2021/06/20 05:21:35;;;;;;;14.23;7.30;;;;;;;;;;5023999;28;20037;-57
2021/06/20 05:24:07;;;;;;;15.55;7.95;;;;;;;;;;5029011;28;20037;-57
2021/06/20 05:26:34;;;;;;;13.02;7.47;;;;;;;;;;5041118;28;20044;-57
2021/06/20 05:29:00;;;;;;;13.30;7.43;;;;;;;;;;5026802;28;20070;-56
2021/06/20 05:31:26;;;;;;;15.30;8.07;;;;;;;;;;5048362;28;20056;-57
2021/06/20 05:33:54;;;;;;;17.95;8.13;;;;;;;;;;5027798;28;20048;-58
2021/06/20 05:36:21;;;;;;;13.65;7.50;;;;;;;;;;5026209;28;20030;-56
2021/06/20 05:38:47;;;;;;;15.43;8.48;;;;;;;;;;5028075;28;20038;-56
2021/06/20 05:41:14;;;;;;;19.58;8.43;;;;;;;;;;5024060;28;20056;-57
2021/06/20 05:43:41;;;;;;;16.00;8.48;;;;;;;;;;5028017;28;20076;-57
2021/06/20 05:46:22;;;;;;;19.15;9.02;;;;;;;;;;5027671;28;20037;-57
2021/06/20 05:48:48;;;;;;;22.08;8.43;;;;;;;;;;5024045;28;20033;-58
2021/06/20 05:51:17;;;;;;;16.38;9.07;;;;;;;;;;5027584;28;20042;-57
2021/06/20 05:53:44;;;;;;;19.73;10.23;;;;;;;;;;5042952;28;20052;-57
2021/06/20 05:56:13;;;;;;;18.58;10.32;;;;;;;;;;5025859;28;20069;-57
2021/06/20 05:58:39;;;;;;;21.10;10.43;;;;;;;;;;5024037;28;20041;-58
2021/06/20 06:01:06;;;;;;;20.65;10.48;;;;;;;;;;5028211;28;20047;-57
2021/06/20 06:03:34;;;;;;;27.52;12.18;;;;;;;;;;5023924;28;20034;-57
2021/06/20 06:06:00;;;;;;;23.17;11.63;;;;;;;;;;5027638;28;20037;-57
2021/06/20 06:08:28;;;;;;;24.35;11.95;;;;;;;;;;5023979;28;20073;-57
2021/06/20 06:10:55;;;;;;;27.05;12.52;;;;;;;;;;5026463;28;20054;-57
2021/06/20 06:13:21;;;;;;;26.23;12.85;;;;;;;;;;5033517;28;20159;-57
2021/06/20 06:15:48;;;;;;;26.50;13.85;;;;;;;;;;5062289;28;20033;-57
2021/06/20 06:18:14;;;;;;;29.13;14.70;;;;;;;;;;5038221;28;20044;-58
2021/06/20 06:20:41;;;;;;;29.75;15.30;;;;;;;;;;5043552;28;20049;-58
2021/06/20 06:23:09;;;;;;;32.78;15.68;;;;;;;;;;5022934;28;20055;-57
2021/06/20 06:25:36;;;;;;;;;;;;;;;;;;5032539;28;20168;-57
2021/06/20 06:28:05;;;;;;;31.30;16.10;;;;;;;;;;5023062;28;19965;-56
2021/06/20 06:30:32;;;;;;;30.90;15.73;;;;;;;;;;5027067;28;20034;-57
2021/06/20 06:32:58;;;;;;;31.67;16.73;;;;;;;;;;5027413;28;20037;-57
2021/06/20 06:35:26;;;;;;;30.92;16.23;;;;;;;;;;5021482;28;20048;-58
2021/06/20 06:37:53;;;;;;;30.63;15.55;;;;;;;;;;5025697;28;20037;-58
2021/06/20 06:40:19;;;;;;;31.77;16.77;;;;;;;;;;5038894;28;20081;-58
2021/06/20 06:42:46;;;;;;;34.75;15.48;;;;;;;;;;5047248;28;20033;-56
2021/06/20 06:45:17;;;;;;;28.60;15.40;;;;;;;;;;5042730;28;20043;-55
2021/06/20 06:47:43;;;;;;;27.50;14.93;;;;;;;;;;5042204;28;20049;-54
2021/06/20 06:50:10;;;;;;;29.15;14.68;;;;;;;;;;5024864;28;20057;-57
2021/06/20 06:52:37;;;;;;;25.27;14.25;;;;;;;;;;5025763;28;20026;-58
2021/06/20 06:55:11;;;;;;;29.25;15.27;;;;;;;;;;5041400;28;20038;-58
2021/06/20 06:57:37;;;;;;;24.60;14.65;;;;;;;;;;5017502;28;20041;-57
2021/06/20 07:00:05;;;;;;;24.92;13.27;;;;;;;;;;5028362;28;20080;-58
2021/06/20 07:02:33;;;;;;;24.60;12.90;;;;;;;;;;5047090;28;20033;-56
2021/06/20 07:05:01;;;;;;;27.60;13.40;;;;;;;;;;5037499;28;20045;-56
2021/06/20 07:07:27;;;;;;;22.60;13.00;;;;;;;;;;5027242;28;20045;-57
2021/06/20 07:09:58;;;;;;;23.17;13.80;;;;;;;;;;5034769;28;20273;-57
2021/06/20 07:12:24;;;;;;;26.23;13.63;;;;;;;;;;5045317;28;20061;-58
2021/06/20 07:14:54;;;;;;;24.27;12.88;;;;;;;;;;5062065;28;20110;-58
2021/06/20 07:17:21;;;;;;;22.13;12.43;;;;;;;;;;5077591;28;20037;-58
2021/06/20 07:19:49;;;;;;;24.90;13.13;;;;;;;;;;5047529;28;20049;-57
2021/06/20 07:22:15;;;;;;;26.45;12.93;;;;;;;;;;5025362;28;20033;-58
2021/06/20 07:24:45;;;;;;;26.27;12.93;;;;;;;;;;5028581;28;20084;-57
2021/06/20 07:27:13;;;;;;;24.90;13.05;;;;;;;;;;5028565;28;20033;-56
2021/06/20 07:29:40;;;;;;;24.23;12.65;;;;;;;;;;5028920;28;20054;-58
2021/06/20 07:32:07;;;;;;;26.33;14.02;;;;;;;;;;5028816;28;20036;-57
2021/06/20 07:34:35;;;;;;;29.13;14.73;;;;;;;;;;5030837;28;20123;-57
2021/06/20 07:37:03;;;;;;;23.83;13.37;;;;;;;;;;5042285;28;20041;-58
2021/06/20 07:39:30;;;;;;;26.77;13.13;;;;;;;;;;5030404;28;20042;-57
2021/06/20 07:41:56;;;;;;;27.00;13.25;;;;;;;;;;5025793;28;20082;-57
2021/06/20 07:44:24;;;;;;;22.88;12.68;;;;;;;;;;5050208;28;20033;-58
2021/06/20 07:46:53;;;;;;;27.40;13.43;;;;;;;;;;5043061;28;20025;-57
2021/06/20 07:49:19;;;;;;;;;;;;;;;;;;5044926;28;20069;-56
2021/06/20 07:51:46;;;;;;;20.98;11.13;;;;;;;;;;5047118;28;20002;-52
2021/06/20 07:54:16;;;;;;;25.75;11.73;;;;;;;;;;5043508;28;20037;-56
2021/06/20 07:56:44;;;;;;;24.10;11.40;;;;;;;;;;5039193;28;20042;-54
2021/06/20 07:59:11;;;;;;;29.05;12.95;;;;;;;;;;5040867;28;20067;-55
2021/06/20 08:01:39;;;;;;;28.38;12.57;;;;;;;;;;5043440;28;20073;-57
2021/06/20 08:04:07;;;;;;;30.58;13.48;;;;;;;;;;5037125;28;20035;-52
2021/06/20 08:06:34;;;;;;;24.17;12.10;;;;;;;;;;5053390;28;20182;-57
2021/06/20 08:09:00;;;;;;;24.05;12.00;;;;;;;;;;5038682;28;20082;-58
2021/06/20 08:11:27;;;;;;;21.88;11.10;;;;;;;;;;5044056;28;20049;-58
2021/06/20 08:13:57;;;;;;;22.15;11.50;;;;;;;;;;5041131;28;20033;-55
2021/06/20 08:16:26;;;;;;;20.73;11.18;;;;;;;;;;5060982;28;20037;-58
2021/06/20 08:18:53;;;;;;;22.40;10.40;;;;;;;;;;5037974;28;20032;-58
2021/06/20 08:21:20;;;;;;;21.13;10.15;;;;;;;;;;5042880;28;20055;-57
2021/06/20 08:23:47;;;;;;;21.75;10.30;;;;;;;;;;5038865;28;20115;-55
2021/06/20 08:26:13;;;;;;;29.38;12.88;;;;;;;;;;5044013;28;20094;-58
2021/06/20 08:28:40;;;;;;;30.52;14.60;;;;;;;;;;5040752;28;20077;-57
2021/06/20 08:31:08;;;;;;;35.00;16.65;;;;;;;;;;5060104;28;20073;-58
2021/06/20 08:33:34;;;;;;;36.03;16.10;;;;;;;;;;5040579;28;20109;-57
2021/06/20 08:36:01;;;;;;;33.38;15.07;;;;;;;;;;5045086;28;20085;-57
2021/06/20 08:38:28;;;;;;;35.85;15.88;;;;;;;;;;5039523;28;20048;-57
2021/06/20 08:40:55;;;;;;;31.23;15.05;;;;;;;;;;5055247;28;20041;-55
2021/06/20 08:43:22;;;;;;;34.95;16.20;;;;;;;;;;5042656;28;20107;-58
2021/06/20 08:45:50;;;;;;;42.17;17.25;;;;;;;;;;5027407;28;20051;-58
2021/06/20 08:48:18;;;;;;;33.05;15.27;;;;;;;;;;5038818;28;20147;-58
2021/06/20 08:50:45;;;;;;;34.17;14.38;;;;;;;;;;5039933;28;20121;-58
2021/06/20 08:53:15;;;;;;;34.42;14.63;;;;;;;;;;5046882;28;20060;-56
2021/06/20 08:55:52;;;;;;;36.45;14.93;;;;;;;;;;5036188;28;20067;-56
2021/06/20 08:58:20;;;;;;;;;;;;;;;;;;5038607;28;20044;-58
2021/06/20 09:00:47;;;;;;;36.45;15.68;;;;;;;;;;5056584;28;19949;-58
2021/06/20 09:03:14;;;;;;;34.47;13.48;;;;;;;;;;5043254;28;20077;-58
2021/06/20 09:06:00;;;;;;;32.13;14.82;;;;;;;;;;5041468;28;20034;-55
2021/06/20 09:08:29;;;;;;;33.65;14.60;;;;;;;;;;5063858;28;20076;-57
2021/06/20 09:10:55;;;;;;;;;;;;;;;;;;5025833;28;20037;-58
2021/06/20 09:13:22;;;;;;;32.88;13.45;;;;;;;;;;5027506;28;19913;-58
2021/06/20 09:15:58;;;;;;;36.30;14.07;;;;;;;;;;5026728;28;20034;-57
2021/06/20 09:18:25;;;;;;;35.30;15.57;;;;;;;;;;5027743;28;20033;-58
2021/06/20 09:20:52;;;;;;;35.22;14.60;;;;;;;;;;5030015;28;20037;-58
2021/06/20 09:23:19;;;;;;;33.42;13.93;;;;;;;;;;5027369;28;20041;-57
2021/06/20 09:25:55;;;;;;;32.10;14.23;;;;;;;;;;5032734;28;20118;-58
2021/06/20 09:28:22;;;;;;;36.10;13.80;;;;;;;;;;5027864;28;20045;-57
2021/06/20 09:30:50;;;;;;;37.58;15.15;;;;;;;;;;5048760;28;20044;-58
2021/06/20 09:33:17;;;;;;;32.15;13.18;;;;;;;;;;5028698;28;20041;-57
2021/06/20 09:35:46;;;;;;;28.73;13.00;;;;;;;;;;5048521;28;20033;-58
2021/06/20 09:38:17;;;;;;;28.17;13.30;;;;;;;;;;5061378;28;20025;-56
2021/06/20 09:40:43;;;;;;;31.15;12.93;;;;;;;;;;5047576;28;20029;-58
2021/06/20 09:43:15;;;;;;;30.55;12.77;;;;;;;;;;5039816;28;20045;-57
2021/06/20 09:45:52;;;;;;;30.00;12.50;;;;;;;;;;5046413;28;20065;-57
2021/06/20 09:48:26;;;;;;;35.53;13.50;;;;;;;;;;5031771;28;20133;-58
2021/06/20 09:50:53;;;;;;;28.13;11.07;;;;;;;;;;5031861;28;20041;-58
2021/06/20 09:53:21;;;;;;;26.67;12.63;;;;;;;;;;5024269;28;20047;-58
2021/06/20 09:55:47;;;;;;;24.52;11.73;;;;;;;;;;5028256;28;20044;-53
2021/06/20 09:58:20;;;;;;;26.77;10.90;;;;;;;;;;5035461;28;20036;-57
2021/06/20 10:00:47;;;;;;;24.27;12.57;;;;;;;;;;5048049;28;20045;-57
2021/06/20 10:03:22;;;;;;;25.95;11.50;;;;;;;;;;5034156;28;20037;-55
2021/06/20 10:05:54;;;;;;;26.02;12.43;;;;;;;;;;5028111;28;20061;-55
2021/06/20 10:08:21;;;;;;;25.85;11.00;;;;;;;;;;5024770;28;20074;-57
2021/06/20 10:10:48;;;;;;;20.50;9.85;;;;;;;;;;5046734;28;20098;-57
2021/06/20 10:13:16;;;;;;;23.73;11.48;;;;;;;;;;5038259;28;20112;-55
2021/06/20 10:15:44;;;;;;;24.75;11.38;;;;;;;;;;5027291;28;20037;-57
2021/06/20 10:18:12;;;;;;;36.80;11.90;;;;;;;;;;5028573;28;20151;-57
2021/06/20 10:20:38;;;;;;;;;;;;;;;;;;5048642;28;20040;-58
2021/06/20 10:23:05;;;;;;;23.25;10.32;;;;;;;;;;5060062;28;19928;-55
2021/06/20 10:25:39;;;;;;;22.25;9.93;;;;;;;;;;5036147;28;20118;-57
2021/06/20 10:28:07;;;;;;;26.42;11.52;;;;;;;;;;5024038;28;20091;-58
2021/06/20 10:30:38;;;;;;;22.13;9.32;;;;;;;;;;5027962;28;20042;-58
2021/06/20 10:33:09;;;;;;;23.15;10.07;;;;;;;;;;5026834;28;20041;-55
2021/06/20 10:35:40;;;;;;;21.30;11.27;;;;;;;;;;5057927;28;20093;-57
2021/06/20 10:38:07;;;;;;;20.85;10.65;;;;;;;;;;5022615;28;20049;-57
2021/06/20 10:40:35;;;;;;;19.60;9.52;;;;;;;;;;5036027;28;20052;-56
2021/06/20 10:43:13;;;;;;;21.38;8.50;;;;;;;;;;5046387;28;20040;-58
2021/06/20 10:45:41;;;;;;;14.48;8.38;;;;;;;;;;5043144;28;20044;-57
2021/06/20 10:48:07;;;;;;;;;;;;;;;;;;5049129;28;20037;-57
2021/06/20 10:50:36;;;;;;;12.67;6.17;;;;;;;;;;5035309;28;19913;-57
2021/06/20 10:53:04;;;;;;;16.27;7.10;;;;;;;;;;5047738;28;20029;-57
2021/06/20 10:55:38;;;;;;;12.38;6.55;;;;;;;;;;5045191;28;20041;-57
2021/06/20 10:58:15;;;;;;;16.90;6.35;;;;;;;;;;5043563;28;20029;-57
2021/06/20 11:00:43;;;;;;;14.27;6.10;;;;;;;;;;5041127;28;20043;-57
2021/06/20 11:03:10;;;;;;;15.07;5.72;;;;;;;;;;5042673;28;20049;-58
2021/06/20 11:05:44;;;;;;;12.00;5.82;;;;;;;;;;5025010;28;20037;-56
2021/06/20 11:08:11;;;;;;;13.27;5.90;;;;;;;;;;5028742;28;20034;-57
2021/06/20 11:10:38;;;;;;;14.70;6.68;;;;;;;;;;5023210;28;20045;-58
2021/06/20 11:13:05;;;;;;;14.45;6.00;;;;;;;;;;5046435;28;20148;-57
2021/06/20 11:15:31;;;;;;;11.85;5.43;;;;;;;;;;5025601;28;20044;-58
2021/06/20 11:18:06;;;;;;;12.30;5.07;;;;;;;;;;5045322;28;20111;-58
2021/06/20 11:20:33;;;;;;;9.85;5.40;;;;;;;;;;5029511;28;20022;-58
2021/06/20 11:22:59;;;;;;;10.35;5.13;;;;;;;;;;5025040;28;20049;-58
2021/06/20 11:25:30;;;;;;;12.15;5.22;;;;;;;;;;5052289;28;20049;-57
2021/06/20 11:27:57;;;;;;;10.88;5.18;;;;;;;;;;5009884;28;20042;-58
2021/06/20 11:30:24;;;;;;;9.75;4.88;;;;;;;;;;5008951;28;20048;-57
2021/06/20 11:32:51;;;;;;;10.38;5.00;;;;;;;;;;5006316;28;20045;-58
2021/06/20 11:35:20;;;;;;;11.27;5.70;;;;;;;;;;5010331;28;20034;-58
2021/06/20 11:37:48;;;;;;;9.25;4.90;;;;;;;;;;5007315;28;20037;-57
2021/06/20 11:40:16;;;;;;;9.13;5.25;;;;;;;;;;5027655;28;20053;-57
2021/06/20 11:42:45;;;;;;;14.75;5.00;;;;;;;;;;5021852;28;20033;-57
2021/06/20 11:45:15;;;;;;;10.63;4.95;;;;;;;;;;5032122;28;20043;-58
2021/06/20 11:47:42;;;;;;;9.65;4.75;;;;;;;;;;5017838;28;20153;-58
2021/06/20 11:50:10;;;;;;;9.88;4.28;;;;;;;;;;5009927;28;20033;-57
2021/06/20 11:52:37;;;;;;;10.93;5.72;;;;;;;;;;5012135;28;20118;-57
2021/06/20 11:55:09;;;;;;;11.65;6.10;;;;;;;;;;5028955;28;20045;-57
2021/06/20 11:57:36;;;;;;;10.57;5.32;;;;;;;;;;5022294;28;20062;-58
2021/06/20 12:00:10;;;;;;;9.13;5.03;;;;;;;;;;5008950;28;20037;-58
2021/06/20 12:02:36;;;;;;;9.25;4.50;;;;;;;;;;5007400;28;20093;-58
2021/06/20 12:05:04;;;;;;;8.68;4.32;;;;;;;;;;5045363;28;20065;-58
2021/06/20 12:07:32;;;;;;;9.23;4.30;;;;;;;;;;5029320;28;20119;-57
2021/06/20 12:10:00;;;;;;;10.05;4.90;;;;;;;;;;5024402;28;20356;-58
2021/06/20 12:12:27;;;;;;;9.05;4.22;;;;;;;;;;5028029;28;20033;-58
2021/06/20 12:15:05;;;;;;;8.65;4.28;;;;;;;;;;5026031;28;20038;-57
2021/06/20 12:17:32;;;;;;;8.77;4.60;;;;;;;;;;5027604;28;20058;-58
2021/06/20 12:19:59;;;;;;;8.77;4.60;;;;;;;;;;5016414;28;20041;-58
2021/06/20 12:22:25;;;;;;;7.88;3.80;;;;;;;;;;5023695;28;20046;-58
2021/06/20 12:24:55;;;;;;;6.65;3.15;;;;;;;;;;5020173;28;20033;-58
2021/06/20 12:27:30;;;;;;;6.25;3.08;;;;;;;;;;5024448;28;20044;-58
2021/06/20 12:29:57;;;;;;;10.65;5.30;;;;;;;;;;5034580;28;20033;-58
2021/06/20 12:32:23;;;;;;;8.25;4.28;;;;;;;;;;5052739;28;20110;-58
2021/06/20 12:34:52;;;;;;;7.75;3.55;;;;;;;;;;5043281;28;20041;-58
2021/06/20 12:37:20;;;;;;;5.47;3.03;;;;;;;;;;5027882;28;20124;-58
2021/06/20 12:39:48;;;;;;;6.85;3.05;;;;;;;;;;5017103;28;20037;-57
2021/06/20 12:42:17;;;;;;;7.03;3.30;;;;;;;;;;5042414;28;20132;-58
2021/06/20 12:44:51;;;;;;;12.88;3.10;;;;;;;;;;5025097;28;20087;-57
2021/06/20 12:47:28;;;;;;;7.68;3.65;;;;;;;;;;5022897;28;20040;-58
2021/06/20 12:49:54;;;;;;;6.15;3.42;;;;;;;;;;5026567;28;20045;-58
2021/06/20 12:52:26;;;;;;;7.07;3.72;;;;;;;;;;5006328;28;20048;-59
2021/06/20 12:54:57;;;;;;;6.85;3.72;;;;;;;;;;5028235;28;20041;-57
2021/06/20 12:57:26;;;;;;;8.07;3.90;;;;;;;;;;5022016;28;20033;-58
2021/06/20 12:59:56;;;;;;;7.63;4.05;;;;;;;;;;5028421;28;20037;-57
2021/06/20 13:02:24;;;;;;;8.88;4.68;;;;;;;;;;5022676;28;20112;-56
2021/06/20 13:04:53;;;;;;;8.88;4.65;;;;;;;;;;5048593;28;20048;-58
2021/06/20 13:07:35;;;;;;;7.65;4.15;;;;;;;;;;5043717;28;20037;-57
2021/06/20 13:10:02;;;;;;;11.27;5.93;;;;;;;;;;5039859;28;20059;-58
2021/06/20 13:12:28;;;;;;;9.68;5.57;;;;;;;;;;5044451;28;20045;-58
2021/06/20 13:14:56;;;;;;;15.48;5.40;;;;;;;;;;5048509;28;20107;-58
2021/06/20 13:17:22;;;;;;;11.35;5.65;;;;;;;;;;5043398;28;20065;-57
2021/06/20 13:19:49;;;;;;;13.23;4.55;;;;;;;;;;5046289;28;20049;-57
2021/06/20 13:22:15;;;;;;;8.48;4.05;;;;;;;;;;5043648;28;20135;-58
2021/06/20 13:24:46;;;;;;;10.35;4.18;;;;;;;;;;5042155;28;20119;-58
2021/06/20 13:27:13;;;;;;;6.97;3.45;;;;;;;;;;5040478;28;20040;-58
2021/06/20 13:29:40;;;;;;;6.70;3.67;;;;;;;;;;5047783;28;20114;-57
2021/06/20 13:32:08;;;;;;;7.30;3.25;;;;;;;;;;5042242;28;20040;-58
2021/06/20 13:34:40;;;;;;;6.40;2.88;;;;;;;;;;5047989;28;20037;-58
2021/06/20 13:37:08;;;;;;;5.90;3.20;;;;;;;;;;5043614;28;20041;-58
2021/06/20 13:39:35;;;;;;;4.72;2.72;;;;;;;;;;5044663;28;20044;-58
2021/06/20 13:42:02;;;;;;;6.72;3.30;;;;;;;;;;5027909;28;20026;-58
2021/06/20 13:44:30;;;;;;;7.10;3.22;;;;;;;;;;5043043;28;20060;-57
2021/06/20 13:46:56;;;;;;;8.30;3.58;;;;;;;;;;5043332;28;20041;-57
2021/06/20 13:49:26;;;;;;;7.35;3.75;;;;;;;;;;5042556;28;20029;-58
2021/06/20 13:51:54;;;;;;;7.85;3.60;;;;;;;;;;5047253;28;20037;-58
2021/06/20 13:54:22;;;;;;;9.88;4.43;;;;;;;;;;5043440;28;20044;-58
2021/06/20 13:56:50;;;;;;;6.53;3.67;;;;;;;;;;5048090;28;20052;-58
2021/06/20 13:59:16;;;;;;;8.53;4.30;;;;;;;;;;5044635;28;20047;-58
2021/06/20 14:01:43;;;;;;;7.13;3.40;;;;;;;;;;5037962;28;20040;-58
2021/06/20 14:04:10;;;;;;;7.90;3.80;;;;;;;;;;5037304;28;20037;-58
2021/06/20 14:06:40;;;;;;;6.70;3.33;;;;;;;;;;5022023;28;20029;-58
2021/06/20 14:09:07;;;;;;;8.30;3.60;;;;;;;;;;5033501;28;20091;-58
2021/06/20 14:11:34;;;;;;;7.40;3.83;;;;;;;;;;5046896;28;20045;-58
2021/06/20 14:14:09;;;;;;;7.68;3.80;;;;;;;;;;5042684;28;20048;-57
2021/06/20 14:16:36;;;;;;;8.30;3.90;;;;;;;;;;5046281;28;20037;-57
2021/06/20 14:19:02;;;;;;;7.65;4.00;;;;;;;;;;5042116;28;20060;-58
2021/06/20 14:21:29;;;;;;;12.10;3.92;;;;;;;;;;5065041;28;20052;-57
2021/06/20 14:23:57;;;;;;;15.73;4.38;;;;;;;;;;5058438;28;20171;-58
2021/06/20 14:26:23;;;;;;;7.28;3.75;;;;;;;;;;5026679;28;20044;-58
2021/06/20 14:28:50;;;;;;;6.93;3.53;;;;;;;;;;5027524;28;20111;-58
2021/06/20 14:31:16;;;;;;;7.57;3.47;;;;;;;;;;5036612;28;20059;-58
2021/06/20 14:33:43;;;;;;;7.80;3.70;;;;;;;;;;5043717;28;20048;-58